Time;durP1;ratioP1;P1;durP2;ratioP2;P2;SDS_P1;SDS_P2;PMS_P1;PMS_P2;Temp;Humidity;BMP_temperature;BMP_pressure;BME280_temperature;BME280_humidity;BME280_pressure;Samples;Min_cycle;Max_cycle;Signal;HPM_P1;HPM_P2
2024/03/16 00:01:56;;;;;;;;;;;;;;;;;;137409;1275;22577;-78
2024/03/16 00:04:57;;;;;;;;;;;;;;;;;;137336;1275;22616;-78
2024/03/16 00:07:58;;;;;;;;;;;;;;;;;;137373;1275;22522;-78
2024/03/16 00:10:59;;;;;;;;;;;;;;;;;;137264;1275;22586;-79
2024/03/16 00:14:00;;;;;;;;;;;;;;;;;;137445;1275;22503;-79
2024/03/16 00:17:04;;;;;;;;;;;;;;;;;;137215;1275;22580;-79
2024/03/16 00:20:10;;;;;;;;;;;;;;;;;;137464;1268;22511;-77
2024/03/16 00:23:11;;;;;;;;;;;;;;;;;;137465;1275;22493;-78
2024/03/16 00:26:12;;;;;;;;;;;;;;;;;;137452;1275;22944;-80
2024/03/16 00:29:13;;;;;;;;;;;;;;;;;;137380;1275;22874;-81
2024/03/16 00:32:15;;;;;;;;;;;;;;;;;;137388;1275;22517;-79
2024/03/16 00:35:16;;;;;;;;;;;;;;;;;;137361;1275;22505;-78
2024/03/16 00:38:17;;;;;;;;;;;;;;;;;;137328;1275;22551;-77
2024/03/16 00:41:19;;;;;;;;;;;;;;;;;;137376;1275;22506;-80
2024/03/16 00:44:20;;;;;;;;;;;;;;;;;;137432;1275;22514;-79
2024/03/16 00:47:21;;;;;;;;;;;;;;;;;;137282;1275;22505;-79
2024/03/16 00:50:22;;;;;;;;;;;;;;;;;;137497;1275;22457;-79
2024/03/16 00:53:23;;;;;;;;;;;;;;;;;;137472;1275;22526;-79
2024/03/16 00:56:25;;;;;;;;;;;;;;;;;;137363;1275;23117;-78
2024/03/16 00:59:28;;;;;;;;;;;;;;;;;;137443;1275;22570;-78
2024/03/16 01:02:29;;;;;;;;;;;;;;;;;;137364;1275;22518;-78
2024/03/16 01:05:30;;;;;;;;;;;;;;;;;;137365;1268;22516;-78
2024/03/16 01:08:32;;;;;;;;;;;;;;;;;;137363;1275;22886;-79
2024/03/16 01:11:33;;;;;;;;;;;;;;;;;;137498;1275;22525;-80
2024/03/16 01:14:34;;;;;;;;;;;;;;;;;;137305;1275;23175;-79
2024/03/16 01:17:35;;;;;;;;;;;;;;;;;;137368;1275;22525;-80
2024/03/16 01:20:36;;;;;;;;;;;;;;;;;;137345;1275;22518;-80
2024/03/16 01:23:37;;;;;;;;;;;;;;;;;;137402;1275;22507;-79
2024/03/16 01:26:38;;;;;;;;;;;;;;;;;;137446;1275;22565;-79
2024/03/16 01:29:39;;;;;;;;;;;;;;;;;;137477;1275;22340;-81
2024/03/16 01:32:43;;;;;;;;;;;;;;;;;;137442;1274;22532;-81
2024/03/16 01:35:44;;;;;;;;;;;;;;;;;;137429;1275;22532;-80
2024/03/16 01:38:45;;;;;;;;;;;;;;;;;;137402;1275;22581;-80
2024/03/16 01:41:46;;;;;;;;;;;;;;;;;;137450;1275;22551;-79
2024/03/16 01:44:47;;;;;;;;;;;;;;;;;;137378;1275;22530;-80
2024/03/16 01:47:48;;;;;;;;;;;;;;;;;;137479;1275;22348;-80
2024/03/16 01:50:51;;;;;;;;;;;;;;;;;;137281;1275;22482;-80
2024/03/16 01:53:52;;;;;;;;;;;;;;;;;;137417;1275;22564;-80
2024/03/16 01:56:55;;;;;;;;;;;;;;;;;;137459;1274;22311;-80
2024/03/16 01:59:56;;;;;;;;;;;;;;;;;;137290;1275;22505;-80
2024/03/16 02:02:57;;;;;;;;;;;;;;;;;;137485;1275;22874;-80
2024/03/16 02:05:59;;;;;;;;;;;;;;;;;;137503;1275;22335;-80
2024/03/16 02:09:03;;;;;;;;;;;;;;;;;;137445;1272;22571;-81
2024/03/16 02:12:04;;;;;;;;;;;;;;;;;;137362;1275;23217;-79
2024/03/16 02:15:05;;;;;;;;;;;;;;;;;;137377;1275;23099;-79
2024/03/16 02:18:09;;;;;;;;;;;;;;;;;;137400;1275;22544;-79
2024/03/16 02:21:10;;;;;;;;;;;;;;;;;;137342;1275;22668;-78
2024/03/16 02:24:13;;;;;;;;;;;;;;;;;;137397;1272;22517;-79
2024/03/16 02:27:14;;;;;;;;;;;;;;;;;;137454;1273;23095;-79
2024/03/16 02:30:15;;;;;;;;;;;;;;;;;;137457;1275;22569;-79
2024/03/16 02:33:16;;;;;;;;;;;;;;;;;;137414;1275;22712;-79
2024/03/16 02:36:17;;;;;;;;;;;;;;;;;;137464;1275;22508;-80
2024/03/16 02:39:21;;;;;;;;;;;;;;;;;;137374;1275;22517;-79
2024/03/16 02:42:22;;;;;;;;;;;;;;;;;;137428;1275;22540;-78
2024/03/16 02:45:23;;;;;;;;;;;;;;;;;;137460;1275;22788;-78
2024/03/16 02:48:24;;;;;;;;;;;;;;;;;;137396;1275;22570;-80
2024/03/16 02:51:25;;;;;;;;;;;;;;;;;;137328;1275;22548;-79
2024/03/16 02:54:26;;;;;;;;;;;;;;;;;;137349;1275;22507;-79
2024/03/16 02:57:27;;;;;;;;;;;;;;;;;;137325;1275;22525;-79
2024/03/16 03:00:28;;;;;;;;;;;;;;;;;;137525;1275;22429;-80
2024/03/16 03:03:29;;;;;;;;;;;;;;;;;;137285;1275;22564;-80
2024/03/16 03:06:31;;;;;;;;;;;;;;;;;;137294;1275;22507;-79
2024/03/16 03:09:33;;;;;;;;;;;;;;;;;;137323;1275;22878;-79
2024/03/16 03:12:34;;;;;;;;;;;;;;;;;;137488;1275;22804;-80
2024/03/16 03:15:36;;;;;;;;;;;;;;;;;;137432;1275;22504;-80
2024/03/16 03:18:37;;;;;;;;;;;;;;;;;;137449;1275;22559;-80
2024/03/16 03:21:38;;;;;;;;;;;;;;;;;;137383;1275;22873;-79
2024/03/16 03:24:42;;;;;;;;;;;;;;;;;;137219;1275;22541;-77
2024/03/16 03:27:43;;;;;;;;;;;;;;;;;;137328;1275;22523;-80
2024/03/16 03:30:44;;;;;;;;;;;;;;;;;;137287;1275;22496;-77
2024/03/16 03:33:45;;;;;;;;;;;;;;;;;;137299;1275;22543;-77
2024/03/16 03:36:46;;;;;;;;;;;;;;;;;;137242;1275;22509;-77
2024/03/16 03:39:52;;;;;;;;;;;;;;;;;;137251;1275;22548;-77
2024/03/16 03:42:55;;;;;;;;;;;;;;;;;;137403;1275;22541;-77
2024/03/16 03:45:57;;;;;;;;;;;;;;;;;;137335;1275;23087;-77
2024/03/16 03:49:10;;;;;;;;;;;;;;;;;;137323;1275;22528;-79
2024/03/16 03:52:14;;;;;;;;;;;;;;;;;;137456;1275;22853;-78
2024/03/16 03:55:15;;;;;;;;;;;;;;;;;;137321;1275;22518;-78
2024/03/16 03:58:16;;;;;;;;;;;;;;;;;;137361;1275;22557;-77
2024/03/16 04:01:17;;;;;;;;;;;;;;;;;;137332;1275;22534;-77
2024/03/16 04:04:19;;;;;;;;;;;;;;;;;;137308;1275;22553;-77
2024/03/16 04:07:20;;;;;;;;;;;;;;;;;;137360;1275;22527;-77
2024/03/16 04:10:21;;;;;;;;;;;;;;;;;;137421;1275;22687;-79
2024/03/16 04:13:22;;;;;;;;;;;;;;;;;;137445;1275;22398;-79
2024/03/16 04:16:23;;;;;;;;;;;;;;;;;;137448;1275;22320;-79
2024/03/16 04:19:27;;;;;;;;;;;;;;;;;;137448;1275;22327;-79
2024/03/16 04:22:28;;;;;;;;;;;;;;;;;;137424;1275;22314;-77
2024/03/16 04:25:29;;;;;;;;;;;;;;;;;;137401;1275;22326;-79
2024/03/16 04:28:31;;;;;;;;;;;;;;;;;;137365;1275;22334;-78
2024/03/16 04:31:32;;;;;;;;;;;;;;;;;;137434;1275;22405;-79
2024/03/16 04:34:33;;;;;;;;;;;;;;;;;;137429;1275;22337;-78
2024/03/16 04:37:35;;;;;;;;;;;;;;;;;;137426;1275;22311;-78
2024/03/16 04:40:36;;;;;;;;;;;;;;;;;;137389;1275;22332;-79
2024/03/16 04:43:37;;;;;;;;;;;;;;;;;;137382;1275;22468;-78
2024/03/16 04:46:38;;;;;;;;;;;;;;;;;;137405;1275;22291;-78
2024/03/16 04:49:39;;;;;;;;;;;;;;;;;;137391;1275;22812;-79
2024/03/16 04:52:40;;;;;;;;;;;;;;;;;;137353;1275;22362;-78
2024/03/16 04:55:41;;;;;;;;;;;;;;;;;;137361;1275;22335;-77
2024/03/16 04:58:42;;;;;;;;;;;;;;;;;;137375;1275;22346;-78
2024/03/16 05:01:43;;;;;;;;;;;;;;;;;;137315;1275;22357;-76
2024/03/16 05:04:44;;;;;;;;;;;;;;;;;;137277;1275;22348;-76
2024/03/16 05:07:45;;;;;;;;;;;;;;;;;;137326;1275;22392;-76
2024/03/16 05:10:47;;;;;;;;;;;;;;;;;;137282;1275;22338;-77
2024/03/16 05:13:48;;;;;;;;;;;;;;;;;;137271;1275;22409;-77
2024/03/16 05:16:49;;;;;;;;;;;;;;;;;;137288;1275;23283;-77
2024/03/16 05:19:52;;;;;;;;;;;;;;;;;;137314;1275;22645;-77
2024/03/16 05:22:53;;;;;;;;;;;;;;;;;;137385;1275;22372;-78
2024/03/16 05:25:54;;;;;;;;;;;;;;;;;;137402;1275;22788;-77
2024/03/16 05:28:55;;;;;;;;;;;;;;;;;;137434;1275;22566;-77
2024/03/16 05:31:57;;;;;;;;;;;;;;;;;;137388;1275;22544;-78
2024/03/16 05:34:58;;;;;;;;;;;;;;;;;;137280;1275;22973;-78
2024/03/16 05:37:59;;;;;;;;;;;;;;;;;;137417;1275;22353;-77
2024/03/16 05:41:00;;;;;;;;;;;;;;;;;;137296;1275;22969;-78
2024/03/16 05:44:01;;;;;;;;;;;;;;;;;;137398;1275;22698;-78
2024/03/16 05:47:02;;;;;;;;;;;;;;;;;;137348;1275;22343;-78
2024/03/16 05:50:03;;;;;;;;;;;;;;;;;;137275;1275;22526;-77
2024/03/16 05:53:04;;;;;;;;;;;;;;;;;;137490;1275;23316;-81
2024/03/16 05:56:06;;;;;;;;;;;;;;;;;;137480;1275;22323;-81
2024/03/16 05:59:08;;;;;;;;;;;;;;;;;;137440;1275;22318;-80
2024/03/16 06:02:09;;;;;;;;;;;;;;;;;;137482;1269;22448;-80
2024/03/16 06:05:10;;;;;;;;;;;;;;;;;;137278;1275;22571;-80
2024/03/16 06:08:13;;;;;;;;;;;;;;;;;;137450;1272;22302;-79
2024/03/16 06:11:15;;;;;;;;;;;;;;;;;;137391;1275;23022;-79
2024/03/16 06:14:16;;;;;;;;;;;;;;;;;;137346;1260;22386;-78
2024/03/16 06:17:17;;;;;;;;;;;;;;;;;;137317;1275;22357;-78
2024/03/16 06:20:18;;;;;;;;;;;;;;;;;;137263;1275;22339;-78
2024/03/16 06:23:19;;;;;;;;;;;;;;;;;;137284;1275;22346;-78
2024/03/16 06:26:20;;;;;;;;;;;;;;;;;;137352;1275;22346;-79
2024/03/16 06:29:25;;;;;;;;;;;;;;;;;;137355;1275;23025;-79
2024/03/16 06:32:28;;;;;;;;;;;;;;;;;;137374;1275;22493;-78
2024/03/16 06:35:29;;;;;;;;;;;;;;;;;;137336;1275;22330;-80
2024/03/16 06:38:30;;;;;;;;;;;;;;;;;;137336;1275;22314;-78
2024/03/16 06:41:31;;;;;;;;;;;;;;;;;;137316;1275;23037;-79
2024/03/16 06:44:32;;;;;;;;;;;;;;;;;;137315;1275;22409;-79
2024/03/16 06:47:33;;;;;;;;;;;;;;;;;;137312;1275;22913;-79
2024/03/16 06:50:36;;;;;;;;;;;;;;;;;;137343;1275;22325;-80
2024/03/16 06:53:37;;;;;;;;;;;;;;;;;;137343;1275;22513;-78
2024/03/16 06:56:39;;;;;;;;;;;;;;;;;;137368;1275;22273;-78
2024/03/16 06:59:40;;;;;;;;;;;;;;;;;;137306;1275;22293;-79
2024/03/16 07:02:41;;;;;;;;;;;;;;;;;;137321;1275;22343;-78
2024/03/16 07:05:42;;;;;;;;;;;;;;;;;;137313;1275;22275;-77
2024/03/16 07:08:43;;;;;;;;;;;;;;;;;;137333;1275;22334;-80
2024/03/16 07:11:44;;;;;;;;;;;;;;;;;;137337;1275;22422;-79
2024/03/16 07:14:45;;;;;;;;;;;;;;;;;;137352;1275;22409;-79
2024/03/16 07:17:46;;;;;;;;;;;;;;;;;;137362;1275;22338;-78
2024/03/16 07:20:48;;;;;;;;;;;;;;;;;;137338;1275;22937;-80
2024/03/16 07:23:49;;;;;;;;;;;;;;;;;;137313;1275;22277;-79
2024/03/16 07:26:50;;;;;;;;;;;;;;;;;;137311;1275;22276;-79
2024/03/16 07:29:51;;;;;;;;;;;;;;;;;;137329;1275;22353;-79
2024/03/16 07:32:52;;;;;;;;;;;;;;;;;;137356;1275;22331;-79
2024/03/16 07:35:53;;;;;;;;;;;;;;;;;;137370;1275;22963;-79
2024/03/16 07:38:55;;;;;;;;;;;;;;;;;;137340;1275;22388;-79
2024/03/16 07:41:56;;;;;;;;;;;;;;;;;;137320;1275;22346;-80
2024/03/16 07:44:57;;;;;;;;;;;;;;;;;;137354;1275;22409;-79
2024/03/16 07:47:58;;;;;;;;;;;;;;;;;;137358;1275;22328;-79
2024/03/16 07:51:00;;;;;;;;;;;;;;;;;;137304;1275;22880;-79
2024/03/16 07:54:01;;;;;;;;;;;;;;;;;;137298;1275;22334;-78
2024/03/16 07:57:02;;;;;;;;;;;;;;;;;;137359;1275;22317;-79
2024/03/16 08:00:03;;;;;;;;;;;;;;;;;;137332;1275;22882;-79
2024/03/16 08:03:04;;;;;;;;;;;;;;;;;;137381;1275;22416;-78
2024/03/16 08:06:07;;;;;;;;;;;;;;;;;;137309;1275;22961;-79
2024/03/16 08:09:09;;;;;;;;;;;;;;;;;;137339;1269;22306;-79
2024/03/16 08:12:10;;;;;;;;;;;;;;;;;;137357;1275;22271;-79
2024/03/16 08:15:11;;;;;;;;;;;;;;;;;;137353;1275;22372;-78
2024/03/16 08:18:12;;;;;;;;;;;;;;;;;;137366;1266;22332;-79
2024/03/16 08:21:14;;;;;;;;;;;;;;;;;;137331;1275;22361;-78
2024/03/16 08:24:16;;;;;;;;;;;;;;;;;;137318;1272;22282;-79
2024/03/16 08:27:17;;;;;;;;;;;;;;;;;;137324;1275;22328;-79
2024/03/16 08:30:18;;;;;;;;;;;;;;;;;;137110;1275;289296;-80
2024/03/16 08:33:19;;;;;;;;;;;;;;;;;;137333;1275;22335;-78
2024/03/16 08:36:20;;;;;;;;;;;;;;;;;;137333;1275;22970;-78
2024/03/16 08:39:23;;;;;;;;;;;;;;;;;;137356;1275;22355;-77
2024/03/16 08:42:24;;;;;;;;;;;;;;;;;;137366;1275;22330;-79
2024/03/16 08:45:25;;;;;;;;;;;;;;;;;;137239;1275;22605;-80
2024/03/16 08:48:26;;;;;;;;;;;;;;;;;;137348;1275;22341;-79
2024/03/16 08:51:27;;;;;;;;;;;;;;;;;;137275;1275;23008;-83
2024/03/16 08:54:29;;;;;;;;;;;;;;;;;;137359;1275;22395;-79
2024/03/16 08:57:30;;;;;;;;;;;;;;;;;;137487;1275;22391;-79
2024/03/16 09:00:31;;;;;;;;;;;;;;;;;;137511;1275;22343;-80
2024/03/16 09:03:33;;;;;;;;;;;;;;;;;;137481;1275;23205;-79
2024/03/16 09:06:35;;;;;;;;;;;;;;;;;;137426;1275;22334;-78
2024/03/16 09:09:36;;;;;;;;;;;;;;;;;;137428;1275;22335;-79
2024/03/16 09:12:37;;;;;;;;;;;;;;;;;;137409;1275;22332;-79
2024/03/16 09:15:38;;;;;;;;;;;;;;;;;;137351;1275;22885;-79
2024/03/16 09:18:39;;;;;;;;;;;;;;;;;;137279;1275;22269;-78
2024/03/16 09:21:40;;;;;;;;;;;;;;;;;;137352;1275;22329;-78
2024/03/16 09:24:41;;;;;;;;;;;;;;;;;;137301;1275;22309;-78
2024/03/16 09:27:43;;;;;;;;;;;;;;;;;;137396;1272;22295;-79
2024/03/16 09:30:44;;;;;;;;;;;;;;;;;;137370;1275;23101;-79
2024/03/16 09:33:46;;;;;;;;;;;;;;;;;;137373;1275;22275;-78
2024/03/16 09:36:47;;;;;;;;;;;;;;;;;;137341;1275;22339;-79
2024/03/16 09:39:48;;;;;;;;;;;;;;;;;;137305;1275;22333;-78
2024/03/16 09:42:50;;;;;;;;;;;;;;;;;;137303;1275;22447;-78
2024/03/16 09:45:51;;;;;;;;;;;;;;;;;;137363;1275;22277;-78
2024/03/16 09:48:52;;;;;;;;;;;;;;;;;;137369;1275;22446;-79
2024/03/16 09:51:53;;;;;;;;;;;;;;;;;;137296;1275;22336;-79
2024/03/16 09:54:54;;;;;;;;;;;;;;;;;;137324;1275;22736;-79
2024/03/16 09:57:55;;;;;;;;;;;;;;;;;;137368;1275;22718;-79
2024/03/16 10:00:56;;;;;;;;;;;;;;;;;;137340;1275;22353;-78
2024/03/16 10:03:57;;;;;;;;;;;;;;;;;;137375;1275;22288;-78
2024/03/16 10:06:58;;;;;;;;;;;;;;;;;;137344;1275;22363;-79
2024/03/16 10:09:59;;;;;;;;;;;;;;;;;;137383;1275;22320;-79
2024/03/16 10:13:00;;;;;;;;;;;;;;;;;;137340;1275;22963;-79
2024/03/16 10:16:01;;;;;;;;;;;;;;;;;;137372;1275;22822;-79
2024/03/16 10:19:06;;;;;;;;;;;;;;;;;;137347;1275;22515;-79
2024/03/16 10:22:07;;;;;;;;;;;;;;;;;;137310;1275;22662;-79
2024/03/16 10:25:09;;;;;;;;;;;;;;;;;;137338;1275;22368;-79
2024/03/16 10:28:14;;;;;;;;;;;;;;;;;;137397;1275;22764;-79
2024/03/16 10:31:16;;;;;;;;;;;;;;;;;;137341;1275;22807;-78
2024/03/16 10:34:17;;;;;;;;;;;;;;;;;;137351;1275;22301;-78
2024/03/16 10:37:18;;;;;;;;;;;;;;;;;;137343;1275;23114;-78
2024/03/16 10:40:19;;;;;;;;;;;;;;;;;;137348;1275;22332;-79
2024/03/16 10:43:20;;;;;;;;;;;;;;;;;;137361;1275;22408;-78
2024/03/16 10:46:24;;;;;;;;;;;;;;;;;;137347;1275;22424;-79
2024/03/16 10:49:25;;;;;;;;;;;;;;;;;;137290;1275;22730;-79
2024/03/16 10:52:27;;;;;;;;;;;;;;;;;;137356;1275;22312;-79
2024/03/16 10:55:29;;;;;;;;;;;;;;;;;;137381;1275;22293;-79
2024/03/16 10:58:31;;;;;;;;;;;;;;;;;;137385;1275;22787;-78
2024/03/16 11:01:32;;;;;;;;;;;;;;;;;;137369;1275;22354;-78
2024/03/16 11:04:33;;;;;;;;;;;;;;;;;;137427;1275;22321;-79
2024/03/16 11:07:34;;;;;;;;;;;;;;;;;;137377;1275;22280;-79
2024/03/16 11:10:36;;;;;;;;;;;;;;;;;;137416;1275;22342;-79
2024/03/16 11:13:37;;;;;;;;;;;;;;;;;;137354;1275;22423;-78
2024/03/16 11:16:39;;;;;;;;;;;;;;;;;;137392;1275;22434;-78
2024/03/16 11:19:41;;;;;;;;;;;;;;;;;;137278;1275;23048;-77
2024/03/16 11:22:42;;;;;;;;;;;;;;;;;;137297;1275;22881;-78
2024/03/16 11:25:43;;;;;;;;;;;;;;;;;;137300;1275;22299;-78
2024/03/16 11:28:44;;;;;;;;;;;;;;;;;;137332;1275;22343;-78
2024/03/16 11:31:46;;;;;;;;;;;;;;;;;;137312;1275;22850;-78
2024/03/16 11:34:47;;;;;;;;;;;;;;;;;;137336;1275;22486;-79
2024/03/16 11:37:48;;;;;;;;;;;;;;;;;;137387;1275;23420;-78
2024/03/16 11:40:50;;;;;;;;;;;;;;;;;;137383;1275;22315;-78
2024/03/16 11:43:51;;;;;;;;;;;;;;;;;;137327;1275;22950;-78
2024/03/16 11:46:53;;;;;;;;;;;;;;;;;;137321;1275;22317;-78
2024/03/16 11:49:54;;;;;;;;;;;;;;;;;;137332;1275;22271;-79
2024/03/16 11:52:56;;;;;;;;;;;;;;;;;;137343;1275;22346;-78
2024/03/16 11:55:57;;;;;;;;;;;;;;;;;;137402;1275;22375;-78
2024/03/16 11:58:58;;;;;;;;;;;;;;;;;;137360;1275;22292;-78
2024/03/16 12:01:59;;;;;;;;;;;;;;;;;;137406;1275;22332;-78
2024/03/16 12:05:00;;;;;;;;;;;;;;;;;;137386;1275;22363;-79
2024/03/16 12:08:04;;;;;;;;;;;;;;;;;;137414;1275;22338;-79
2024/03/16 12:11:05;;;;;;;;;;;;;;;;;;137398;1275;22324;-79
2024/03/16 12:14:08;;;;;;;;;;;;;;;;;;137421;1259;22397;-78
2024/03/16 12:17:11;;;;;;;;;;;;;;;;;;137388;1275;22783;-79
2024/03/16 12:20:12;;;;;;;;;;;;;;;;;;137397;1275;22332;-78
2024/03/16 12:23:13;;;;;;;;;;;;;;;;;;137185;1275;22525;-78
2024/03/16 12:26:14;;;;;;;;;;;;;;;;;;137365;1275;22519;-79
2024/03/16 12:29:16;;;;;;;;;;;;;;;;;;137458;1275;22387;-78
2024/03/16 12:32:17;;;;;;;;;;;;;;;;;;137400;1275;22762;-78
2024/03/16 12:35:18;;;;;;;;;;;;;;;;;;137483;1275;22731;-78
2024/03/16 12:38:20;;;;;;;;;;;;;;;;;;137509;1275;22283;-77
2024/03/16 12:41:21;;;;;;;;;;;;;;;;;;137551;1275;22416;-78
2024/03/16 12:44:22;;;;;;;;;;;;;;;;;;137517;1275;22461;-78
2024/03/16 12:47:23;;;;;;;;;;;;;;;;;;137446;1275;23007;-78
2024/03/16 12:50:26;;;;;;;;;;;;;;;;;;137428;1275;22563;-79
2024/03/16 12:53:27;;;;;;;;;;;;;;;;;;137492;1275;22320;-78
2024/03/16 12:56:36;;;;;;;;;;;;;;;;;;137374;1275;22667;-78
2024/03/16 12:59:38;;;;;;;;;;;;;;;;;;137357;1275;22898;-78
2024/03/16 13:02:39;;;;;;;;;;;;;;;;;;137379;1275;22546;-79
2024/03/16 13:05:40;;;;;;;;;;;;;;;;;;137458;1275;22326;-78
2024/03/16 13:08:41;;;;;;;;;;;;;;;;;;137426;1275;22344;-78
2024/03/16 13:11:42;;;;;;;;;;;;;;;;;;137351;1275;22546;-79
2024/03/16 13:14:44;;;;;;;;;;;;;;;;;;137450;1275;22376;-78
2024/03/16 13:17:46;;;;;;;;;;;;;;;;;;137435;1275;22333;-78
2024/03/16 13:20:47;;;;;;;;;;;;;;;;;;137449;1275;22505;-78
2024/03/16 13:23:48;;;;;;;;;;;;;;;;;;137451;1271;22347;-79
2024/03/16 13:26:50;;;;;;;;;;;;;;;;;;137417;1275;22329;-78
2024/03/16 13:29:51;;;;;;;;;;;;;;;;;;137470;1275;22349;-78
2024/03/16 13:32:52;;;;;;;;;;;;;;;;;;137423;1275;22316;-78
2024/03/16 13:35:54;;;;;;;;;;;;;;;;;;137427;1272;22356;-79
2024/03/16 13:38:55;;;;;;;;;;;;;;;;;;137389;1275;22525;-78
2024/03/16 13:41:56;;;;;;;;;;;;;;;;;;137335;1275;22510;-78
2024/03/16 13:44:57;;;;;;;;;;;;;;;;;;137352;1275;22538;-78
2024/03/16 13:47:58;;;;;;;;;;;;;;;;;;137431;1275;22523;-79
2024/03/16 13:50:59;;;;;;;;;;;;;;;;;;137339;1275;22499;-78
2024/03/16 13:54:00;;;;;;;;;;;;;;;;;;137401;1275;22845;-78
2024/03/16 13:57:02;;;;;;;;;;;;;;;;;;137365;1275;22968;-78
2024/03/16 14:00:05;;;;;;;;;;;;;;;;;;137231;1275;22512;-78
2024/03/16 14:03:06;;;;;;;;;;;;;;;;;;137292;1275;22522;-78
2024/03/16 14:06:07;;;;;;;;;;;;;;;;;;137265;1275;22891;-78
2024/03/16 14:09:09;;;;;;;;;;;;;;;;;;137350;1275;22625;-78
2024/03/16 14:12:10;;;;;;;;;;;;;;;;;;137355;1267;22583;-78
2024/03/16 14:15:11;;;;;;;;;;;;;;;;;;137394;1275;22524;-78
2024/03/16 14:18:13;;;;;;;;;;;;;;;;;;137193;1275;22547;-78
2024/03/16 14:21:16;;;;;;;;;;;;;;;;;;137433;1275;22576;-79
2024/03/16 14:24:18;;;;;;;;;;;;;;;;;;137374;1275;22624;-79
2024/03/16 14:27:19;;;;;;;;;;;;;;;;;;137328;1275;22581;-79
2024/03/16 14:30:21;;;;;;;;;;;;;;;;;;137350;1275;22540;-79
2024/03/16 14:33:22;;;;;;;;;;;;;;;;;;137436;1275;22770;-79
2024/03/16 14:36:23;;;;;;;;;;;;;;;;;;137394;1275;22514;-78
2024/03/16 14:39:27;;;;;;;;;;;;;;;;;;137395;1267;22567;-79
2024/03/16 14:42:28;;;;;;;;;;;;;;;;;;137416;1271;22510;-79
2024/03/16 14:45:30;;;;;;;;;;;;;;;;;;137429;1275;22449;-78
2024/03/16 14:48:31;;;;;;;;;;;;;;;;;;137343;1275;22510;-78
2024/03/16 14:51:32;;;;;;;;;;;;;;;;;;137387;1275;22355;-78
2024/03/16 14:54:33;;;;;;;;;;;;;;;;;;137409;1275;22282;-78
2024/03/16 14:57:34;;;;;;;;;;;;;;;;;;137418;1275;22364;-78
2024/03/16 15:00:37;;;;;;;;;;;;;;;;;;137387;1271;22282;-78
2024/03/16 15:03:38;;;;;;;;;;;;;;;;;;137430;1275;22310;-77
2024/03/16 15:06:39;;;;;;;;;;;;;;;;;;137400;1275;22574;-78
2024/03/16 15:09:41;;;;;;;;;;;;;;;;;;137398;1274;22288;-77
2024/03/16 15:12:42;;;;;;;;;;;;;;;;;;137404;1275;22754;-78
2024/03/16 15:15:43;;;;;;;;;;;;;;;;;;137402;1275;22297;-78
2024/03/16 15:18:45;;;;;;;;;;;;;;;;;;137404;1275;22271;-78
2024/03/16 15:21:46;;;;;;;;;;;;;;;;;;137431;1275;22535;-78
2024/03/16 15:24:47;;;;;;;;;;;;;;;;;;137355;1275;22534;-78
2024/03/16 15:28:08;;;;;;;;;;;;;;;;;;137426;1275;22989;-78
2024/03/16 15:31:09;;;;;;;;;;;;;;;;;;137406;1275;22315;-78
2024/03/16 15:34:11;;;;;;;;;;;;;;;;;;137426;1275;22360;-78
2024/03/16 15:37:13;;;;;;;;;;;;;;;;;;137444;1275;22355;-79
2024/03/16 15:40:14;;;;;;;;;;;;;;;;;;137386;1275;22334;-79
2024/03/16 15:43:15;;;;;;;;;;;;;;;;;;137414;1275;22430;-78
2024/03/16 15:46:16;;;;;;;;;;;;;;;;;;137411;1275;22354;-78
2024/03/16 15:49:17;;;;;;;;;;;;;;;;;;137371;1275;22353;-78
2024/03/16 15:52:18;;;;;;;;;;;;;;;;;;137271;1275;22533;-78
2024/03/16 15:55:19;;;;;;;;;;;;;;;;;;137356;1275;22606;-78
2024/03/16 15:58:22;;;;;;;;;;;;;;;;;;137390;1275;22332;-78
2024/03/16 16:01:26;;;;;;;;;;;;;;;;;;137393;1275;23105;-77
2024/03/16 16:04:27;;;;;;;;;;;;;;;;;;137316;1275;23171;-77
2024/03/16 16:07:29;;;;;;;;;;;;;;;;;;137358;1275;22958;-78
2024/03/16 16:10:30;;;;;;;;;;;;;;;;;;137337;1275;22605;-79
2024/03/16 16:13:31;;;;;;;;;;;;;;;;;;137459;1275;22472;-79
2024/03/16 16:16:36;;;;;;;;;;;;;;;;;;137422;1275;23055;-78
2024/03/16 16:19:38;;;;;;;;;;;;;;;;;;137283;1269;22496;-78
2024/03/16 16:22:42;;;;;;;;;;;;;;;;;;137424;1275;22278;-78
2024/03/16 16:25:43;;;;;;;;;;;;;;;;;;137424;1275;22510;-78
2024/03/16 16:28:44;;;;;;;;;;;;;;;;;;137413;1275;22554;-78
2024/03/16 16:31:45;;;;;;;;;;;;;;;;;;137409;1275;22661;-79
2024/03/16 16:34:47;;;;;;;;;;;;;;;;;;137262;1275;22528;-79
2024/03/16 16:37:48;;;;;;;;;;;;;;;;;;137424;1275;23004;-78
2024/03/16 16:40:49;;;;;;;;;;;;;;;;;;137259;1275;22609;-77
2024/03/16 16:43:50;;;;;;;;;;;;;;;;;;137291;1275;22966;-79
2024/03/16 16:46:51;;;;;;;;;;;;;;;;;;137308;1275;22546;-77
2024/03/16 16:49:54;;;;;;;;;;;;;;;;;;137376;1275;22556;-76
2024/03/16 16:52:55;;;;;;;;;;;;;;;;;;137381;1275;22506;-80
2024/03/16 16:55:57;;;;;;;;;;;;;;;;;;137360;1275;22626;-80
2024/03/16 16:58:58;;;;;;;;;;;;;;;;;;137365;1275;22594;-78
2024/03/16 17:01:59;;;;;;;;;;;;;;;;;;137411;1275;22958;-80
2024/03/16 17:05:00;;;;;;;;;;;;;;;;;;137302;1259;22510;-79
2024/03/16 17:08:01;;;;;;;;;;;;;;;;;;137411;1275;22536;-79
2024/03/16 17:11:02;;;;;;;;;;;;;;;;;;137259;1275;23117;-80
2024/03/16 17:14:05;;;;;;;;;;;;;;;;;;137374;1275;22502;-80
2024/03/16 17:17:08;;;;;;;;;;;;;;;;;;137407;1275;23083;-80
2024/03/16 17:20:16;;;;;;;;;;;;;;;;;;137308;1269;22527;-79
2024/03/16 17:23:17;;;;;;;;;;;;;;;;;;137201;1275;22546;-80
2024/03/16 17:26:20;;;;;;;;;;;;;;;;;;137403;1275;22574;-79
2024/03/16 17:29:21;;;;;;;;;;;;;;;;;;137324;1275;22522;-79
2024/03/16 17:32:22;;;;;;;;;;;;;;;;;;137374;1275;22504;-79
2024/03/16 17:35:23;;;;;;;;;;;;;;;;;;137317;1275;22582;-79
2024/03/16 17:38:24;;;;;;;;;;;;;;;;;;137387;1275;22507;-79
2024/03/16 17:41:26;;;;;;;;;;;;;;;;;;137369;1275;22572;-79
2024/03/16 17:44:27;;;;;;;;;;;;;;;;;;137380;1275;23092;-80
2024/03/16 17:47:28;;;;;;;;;;;;;;;;;;137383;1275;22507;-80
2024/03/16 17:50:29;;;;;;;;;;;;;;;;;;137471;1275;22337;-80
2024/03/16 17:53:30;;;;;;;;;;;;;;;;;;137415;1272;22521;-79
2024/03/16 17:56:31;;;;;;;;;;;;;;;;;;137431;1275;22511;-80
2024/03/16 17:59:32;;;;;;;;;;;;;;;;;;137371;1275;22516;-79
2024/03/16 18:02:33;;;;;;;;;;;;;;;;;;137435;1272;22525;-79
2024/03/16 18:05:34;;;;;;;;;;;;;;;;;;137322;1271;23002;-79
2024/03/16 18:08:35;;;;;;;;;;;;;;;;;;137317;1275;22967;-80
2024/03/16 18:11:36;;;;;;;;;;;;;;;;;;137341;1275;22603;-81
2024/03/16 18:14:39;;;;;;;;;;;;;;;;;;137395;1275;22495;-81
2024/03/16 18:17:41;;;;;;;;;;;;;;;;;;137443;1275;22408;-81
2024/03/16 18:20:44;;;;;;;;;;;;;;;;;;137470;1271;22267;-82
2024/03/16 18:23:46;;;;;;;;;;;;;;;;;;137414;1275;22527;-83
2024/03/16 18:26:47;;;;;;;;;;;;;;;;;;137294;1275;23019;-82
2024/03/16 18:29:48;;;;;;;;;;;;;;;;;;137325;1272;22553;-83
2024/03/16 18:32:49;;;;;;;;;;;;;;;;;;137383;1275;23073;-81
2024/03/16 18:35:50;;;;;;;;;;;;;;;;;;137386;1275;22507;-82
2024/03/16 18:38:51;;;;;;;;;;;;;;;;;;137374;1275;22518;-83
2024/03/16 18:41:53;;;;;;;;;;;;;;;;;;137343;1275;22499;-82
2024/03/16 18:44:54;;;;;;;;;;;;;;;;;;137436;1275;22401;-82
2024/03/16 18:47:55;;;;;;;;;;;;;;;;;;137410;1275;22874;-83
2024/03/16 18:50:56;;;;;;;;;;;;;;;;;;137302;1275;22502;-83
2024/03/16 18:53:57;;;;;;;;;;;;;;;;;;137392;1275;22548;-83
2024/03/16 18:56:59;;;;;;;;;;;;;;;;;;137450;1275;22324;-83
2024/03/16 19:00:00;;;;;;;;;;;;;;;;;;137360;1275;23108;-83
2024/03/16 19:03:01;;;;;;;;;;;;;;;;;;137427;1275;22837;-81
2024/03/16 19:06:02;;;;;;;;;;;;;;;;;;137352;1275;22545;-81
2024/03/16 19:09:06;;;;;;;;;;;;;;;;;;137245;1275;22532;-82
2024/03/16 19:12:07;;;;;;;;;;;;;;;;;;137324;1275;22510;-82
2024/03/16 19:15:09;;;;;;;;;;;;;;;;;;137301;1275;22521;-83
2024/03/16 19:18:10;;;;;;;;;;;;;;;;;;137256;1272;23088;-82
2024/03/16 19:21:11;;;;;;;;;;;;;;;;;;137308;1275;22536;-81
2024/03/16 19:24:15;;;;;;;;;;;;;;;;;;137343;1275;22610;-81
2024/03/16 19:27:16;;;;;;;;;;;;;;;;;;137334;1275;22531;-81
2024/03/16 19:30:17;;;;;;;;;;;;;;;;;;137213;1275;22512;-81
2024/03/16 19:33:18;;;;;;;;;;;;;;;;;;137405;1275;22864;-81
2024/03/16 19:36:23;;;;;;;;;;;;;;;;;;137402;1275;22349;-80
2024/03/16 19:39:24;;;;;;;;;;;;;;;;;;137394;1275;22328;-81
2024/03/16 19:42:26;;;;;;;;;;;;;;;;;;137289;1275;22514;-81
2024/03/16 19:45:27;;;;;;;;;;;;;;;;;;137369;1275;22475;-81
2024/03/16 19:48:28;;;;;;;;;;;;;;;;;;137378;1275;22981;-81
2024/03/16 19:51:29;;;;;;;;;;;;;;;;;;137412;1275;22514;-81
2024/03/16 19:54:30;;;;;;;;;;;;;;;;;;137410;1275;22346;-80
2024/03/16 19:57:32;;;;;;;;;;;;;;;;;;137370;1275;22342;-81
2024/03/16 20:00:33;;;;;;;;;;;;;;;;;;137346;1275;22635;-81
2024/03/16 20:03:36;;;;;;;;;;;;;;;;;;137366;1275;22340;-81
2024/03/16 20:06:37;;;;;;;;;;;;;;;;;;137321;1275;22495;-81
2024/03/16 20:09:40;;;;;;;;;;;;;;;;;;137387;1275;22515;-80
2024/03/16 20:12:42;;;;;;;;;;;;;;;;;;137406;1275;22507;-80
2024/03/16 20:15:43;;;;;;;;;;;;;;;;;;137391;1275;22487;-79
2024/03/16 20:18:47;;;;;;;;;;;;;;;;;;137459;1275;22352;-80